sensor_id;sensor_type;location;lat;lon;timestamp;temperature;humidity
70271;SHT31;57680;54.292;18.598;2023-03-15T00:01:37;3.26;85.69
70271;SHT31;57680;54.292;18.598;2023-03-15T00:04:02;3.26;85.91
70271;SHT31;57680;54.292;18.598;2023-03-15T00:06:28;3.23;86.33
70271;SHT31;57680;54.292;18.598;2023-03-15T00:08:55;3.36;85.61
70271;SHT31;57680;54.292;18.598;2023-03-15T00:11:21;3.30;86.13
70271;SHT31;57680;54.292;18.598;2023-03-15T00:13:46;3.33;85.44
70271;SHT31;57680;54.292;18.598;2023-03-15T00:16:12;3.42;85.63
70271;SHT31;57680;54.292;18.598;2023-03-15T00:18:37;3.43;85.38
70271;SHT31;57680;54.292;18.598;2023-03-15T00:21:03;3.32;85.60
70271;SHT31;57680;54.292;18.598;2023-03-15T00:23:28;3.24;86.12
70271;SHT31;57680;54.292;18.598;2023-03-15T00:25:54;3.37;85.77
70271;SHT31;57680;54.292;18.598;2023-03-15T00:28:19;3.27;85.69
70271;SHT31;57680;54.292;18.598;2023-03-15T00:30:45;3.23;86.18
70271;SHT31;57680;54.292;18.598;2023-03-15T00:33:11;3.33;86.00
70271;SHT31;57680;54.292;18.598;2023-03-15T00:35:39;3.34;85.35
70271;SHT31;57680;54.292;18.598;2023-03-15T00:38:05;3.33;85.99
70271;SHT31;57680;54.292;18.598;2023-03-15T00:40:31;3.30;85.66
70271;SHT31;57680;54.292;18.598;2023-03-15T00:42:56;3.29;85.77
70271;SHT31;57680;54.292;18.598;2023-03-15T00:45:22;3.30;85.72
70271;SHT31;57680;54.292;18.598;2023-03-15T00:47:52;3.39;85.47
70271;SHT31;57680;54.292;18.598;2023-03-15T00:50:18;3.43;85.12
70271;SHT31;57680;54.292;18.598;2023-03-15T00:52:44;3.26;85.84
70271;SHT31;57680;54.292;18.598;2023-03-15T00:55:12;3.34;85.05
70271;SHT31;57680;54.292;18.598;2023-03-15T00:57:40;3.29;85.10
70271;SHT31;57680;54.292;18.598;2023-03-15T01:00:08;3.29;85.41
70271;SHT31;57680;54.292;18.598;2023-03-15T01:02:34;3.32;84.74
70271;SHT31;57680;54.292;18.598;2023-03-15T01:04:59;3.32;84.83
70271;SHT31;57680;54.292;18.598;2023-03-15T01:07:25;3.29;84.79
70271;SHT31;57680;54.292;18.598;2023-03-15T01:09:50;3.26;84.95
70271;SHT31;57680;54.292;18.598;2023-03-15T01:12:16;3.36;84.62
70271;SHT31;57680;54.292;18.598;2023-03-15T01:14:41;3.26;85.24
70271;SHT31;57680;54.292;18.598;2023-03-15T01:17:07;3.27;84.60
70271;SHT31;57680;54.292;18.598;2023-03-15T01:19:32;3.30;84.65
70271;SHT31;57680;54.292;18.598;2023-03-15T01:21:58;3.18;85.18
70271;SHT31;57680;54.292;18.598;2023-03-15T01:24:24;3.05;85.85
70271;SHT31;57680;54.292;18.598;2023-03-15T01:26:49;3.13;85.25
70271;SHT31;57680;54.292;18.598;2023-03-15T01:29:15;3.09;85.48
70271;SHT31;57680;54.292;18.598;2023-03-15T01:31:40;3.06;85.61
70271;SHT31;57680;54.292;18.598;2023-03-15T01:34:05;2.99;86.17
70271;SHT31;57680;54.292;18.598;2023-03-15T01:36:31;2.99;86.28
70271;SHT31;57680;54.292;18.598;2023-03-15T01:38:57;3.09;85.50
70271;SHT31;57680;54.292;18.598;2023-03-15T01:41:22;2.98;86.14
70271;SHT31;57680;54.292;18.598;2023-03-15T01:43:48;2.96;86.19
70271;SHT31;57680;54.292;18.598;2023-03-15T01:46:25;2.93;86.43
70271;SHT31;57680;54.292;18.598;2023-03-15T01:49:06;2.96;86.27
70271;SHT31;57680;54.292;18.598;2023-03-15T01:54:01;3.05;85.36
70271;SHT31;57680;54.292;18.598;2023-03-15T01:56:27;2.98;85.67
70271;SHT31;57680;54.292;18.598;2023-03-15T01:58:54;2.98;85.25
70271;SHT31;57680;54.292;18.598;2023-03-15T02:01:21;2.93;85.32
70271;SHT31;57680;54.292;18.598;2023-03-15T02:03:52;3.02;85.14
70271;SHT31;57680;54.292;18.598;2023-03-15T02:06:20;3.01;85.17
70271;SHT31;57680;54.292;18.598;2023-03-15T02:08:50;3.02;84.68
70271;SHT31;57680;54.292;18.598;2023-03-15T02:11:19;2.96;85.13
70271;SHT31;57680;54.292;18.598;2023-03-15T02:13:47;2.89;85.20
70271;SHT31;57680;54.292;18.598;2023-03-15T02:16:14;3.12;84.09
70271;SHT31;57680;54.292;18.598;2023-03-15T02:18:40;3.01;84.76
70271;SHT31;57680;54.292;18.598;2023-03-15T02:23:47;2.89;84.85
70271;SHT31;57680;54.292;18.598;2023-03-15T02:26:32;3.01;84.77
70271;SHT31;57680;54.292;18.598;2023-03-15T02:28:58;3.01;84.00
70271;SHT31;57680;54.292;18.598;2023-03-15T02:31:24;2.89;84.78
70271;SHT31;57680;54.292;18.598;2023-03-15T02:33:51;2.91;84.74
70271;SHT31;57680;54.292;18.598;2023-03-15T02:36:24;2.82;84.49
70271;SHT31;57680;54.292;18.598;2023-03-15T02:38:51;2.74;85.07
70271;SHT31;57680;54.292;18.598;2023-03-15T02:41:39;2.62;85.42
70271;SHT31;57680;54.292;18.598;2023-03-15T02:44:11;2.52;85.86
70271;SHT31;57680;54.292;18.598;2023-03-15T02:46:39;2.60;85.32
70271;SHT31;57680;54.292;18.598;2023-03-15T02:49:06;2.62;85.21
70271;SHT31;57680;54.292;18.598;2023-03-15T02:51:33;2.70;84.94
70271;SHT31;57680;54.292;18.598;2023-03-15T02:53:58;2.62;84.88
70271;SHT31;57680;54.292;18.598;2023-03-15T02:56:24;2.62;85.02
70271;SHT31;57680;54.292;18.598;2023-03-15T02:58:49;2.58;84.94
70271;SHT31;57680;54.292;18.598;2023-03-15T03:01:16;2.66;84.57
70271;SHT31;57680;54.292;18.598;2023-03-15T03:03:43;2.58;84.85
70271;SHT31;57680;54.292;18.598;2023-03-15T03:06:10;2.66;84.03
70271;SHT31;57680;54.292;18.598;2023-03-15T03:08:36;2.61;84.56
70271;SHT31;57680;54.292;18.598;2023-03-15T03:11:02;2.51;84.55
70271;SHT31;57680;54.292;18.598;2023-03-15T03:13:27;2.58;84.30
70271;SHT31;57680;54.292;18.598;2023-03-15T03:15:53;2.44;84.72
70271;SHT31;57680;54.292;18.598;2023-03-15T03:18:18;2.38;84.70
70271;SHT31;57680;54.292;18.598;2023-03-15T03:20:44;2.37;84.35
70271;SHT31;57680;54.292;18.598;2023-03-15T03:23:09;2.33;84.58
70271;SHT31;57680;54.292;18.598;2023-03-15T03:25:35;2.20;85.24
70271;SHT31;57680;54.292;18.598;2023-03-15T03:28:00;2.16;85.12
70271;SHT31;57680;54.292;18.598;2023-03-15T03:30:26;2.10;85.30
70271;SHT31;57680;54.292;18.598;2023-03-15T03:32:51;2.19;85.14
70271;SHT31;57680;54.292;18.598;2023-03-15T03:35:17;2.30;84.86
70271;SHT31;57680;54.292;18.598;2023-03-15T03:37:42;2.29;85.18
70271;SHT31;57680;54.292;18.598;2023-03-15T03:40:08;2.36;85.38
70271;SHT31;57680;54.292;18.598;2023-03-15T03:42:34;2.26;84.90
70271;SHT31;57680;54.292;18.598;2023-03-15T03:45:00;2.09;85.60
70271;SHT31;57680;54.292;18.598;2023-03-15T03:47:26;1.93;86.27
70271;SHT31;57680;54.292;18.598;2023-03-15T03:49:51;1.89;87.33
70271;SHT31;57680;54.292;18.598;2023-03-15T03:52:18;1.78;87.64
70271;SHT31;57680;54.292;18.598;2023-03-15T03:54:43;1.79;88.50
70271;SHT31;57680;54.292;18.598;2023-03-15T03:57:09;1.81;88.89
70271;SHT31;57680;54.292;18.598;2023-03-15T03:59:35;1.87;89.14
70271;SHT31;57680;54.292;18.598;2023-03-15T04:02:00;1.98;89.12
70271;SHT31;57680;54.292;18.598;2023-03-15T04:04:26;1.98;89.25
70271;SHT31;57680;54.292;18.598;2023-03-15T04:06:51;2.07;89.17
70271;SHT31;57680;54.292;18.598;2023-03-15T04:09:17;1.96;89.52
70271;SHT31;57680;54.292;18.598;2023-03-15T04:11:43;1.98;89.52
70271;SHT31;57680;54.292;18.598;2023-03-15T04:14:09;2.00;89.21
70271;SHT31;57680;54.292;18.598;2023-03-15T04:16:35;1.92;89.66
70271;SHT31;57680;54.292;18.598;2023-03-15T04:19:01;1.79;90.01
70271;SHT31;57680;54.292;18.598;2023-03-15T04:21:26;1.71;90.37
70271;SHT31;57680;54.292;18.598;2023-03-15T04:23:52;1.66;91.31
70271;SHT31;57680;54.292;18.598;2023-03-15T04:26:17;1.63;91.03
70271;SHT31;57680;54.292;18.598;2023-03-15T04:28:42;1.51;91.45
70271;SHT31;57680;54.292;18.598;2023-03-15T04:31:09;1.54;91.59
70271;SHT31;57680;54.292;18.598;2023-03-15T04:33:35;1.45;91.66
70271;SHT31;57680;54.292;18.598;2023-03-15T04:36:00;1.41;91.73
70271;SHT31;57680;54.292;18.598;2023-03-15T04:38:26;1.35;91.45
70271;SHT31;57680;54.292;18.598;2023-03-15T04:40:52;1.31;92.15
70271;SHT31;57680;54.292;18.598;2023-03-15T04:43:18;1.23;92.16
70271;SHT31;57680;54.292;18.598;2023-03-15T04:45:43;1.21;92.00
70271;SHT31;57680;54.292;18.598;2023-03-15T04:48:09;1.23;91.87
70271;SHT31;57680;54.292;18.598;2023-03-15T04:50:34;1.27;91.78
70271;SHT31;57680;54.292;18.598;2023-03-15T04:53:00;1.30;91.37
70271;SHT31;57680;54.292;18.598;2023-03-15T04:55:25;1.28;91.23
70271;SHT31;57680;54.292;18.598;2023-03-15T04:57:51;1.34;91.02
70271;SHT31;57680;54.292;18.598;2023-03-15T05:00:17;1.30;90.61
70271;SHT31;57680;54.292;18.598;2023-03-15T05:02:42;1.31;90.80
70271;SHT31;57680;54.292;18.598;2023-03-15T05:05:11;1.34;90.00
70271;SHT31;57680;54.292;18.598;2023-03-15T05:07:37;1.40;89.86
70271;SHT31;57680;54.292;18.598;2023-03-15T05:10:04;1.31;90.13
70271;SHT31;57680;54.292;18.598;2023-03-15T05:12:30;1.28;90.18
70271;SHT31;57680;54.292;18.598;2023-03-15T05:14:56;1.28;90.41
70271;SHT31;57680;54.292;18.598;2023-03-15T05:17:22;1.32;90.32
70271;SHT31;57680;54.292;18.598;2023-03-15T05:19:48;1.32;90.34
70271;SHT31;57680;54.292;18.598;2023-03-15T05:22:14;1.37;90.63
70271;SHT31;57680;54.292;18.598;2023-03-15T05:24:39;1.61;90.12
70271;SHT31;57680;54.292;18.598;2023-03-15T05:27:04;1.75;89.78
70271;SHT31;57680;54.292;18.598;2023-03-15T05:29:30;2.09;89.01
70271;SHT31;57680;54.292;18.598;2023-03-15T05:31:55;2.27;88.27
70271;SHT31;57680;54.292;18.598;2023-03-15T05:34:21;2.47;87.26
70271;SHT31;57680;54.292;18.598;2023-03-15T05:36:46;2.37;87.65
70271;SHT31;57680;54.292;18.598;2023-03-15T05:39:12;2.26;87.23
70271;SHT31;57680;54.292;18.598;2023-03-15T05:41:37;2.16;87.57
70271;SHT31;57680;54.292;18.598;2023-03-15T05:44:03;2.20;87.84
70271;SHT31;57680;54.292;18.598;2023-03-15T05:46:28;2.33;87.39
70271;SHT31;57680;54.292;18.598;2023-03-15T05:48:54;2.45;86.48
70271;SHT31;57680;54.292;18.598;2023-03-15T05:51:19;2.42;86.85
70271;SHT31;57680;54.292;18.598;2023-03-15T05:53:45;2.60;86.44
70271;SHT31;57680;54.292;18.598;2023-03-15T05:56:10;2.88;86.44
70271;SHT31;57680;54.292;18.598;2023-03-15T05:58:36;3.30;85.60
70271;SHT31;57680;54.292;18.598;2023-03-15T06:01:03;3.74;83.67
70271;SHT31;57680;54.292;18.598;2023-03-15T06:03:30;4.09;81.84
70271;SHT31;57680;54.292;18.598;2023-03-15T06:05:56;4.32;80.35
70271;SHT31;57680;54.292;18.598;2023-03-15T06:08:22;4.46;79.10
70271;SHT31;57680;54.292;18.598;2023-03-15T06:10:48;4.60;78.00
70271;SHT31;57680;54.292;18.598;2023-03-15T06:13:13;4.35;78.97
70271;SHT31;57680;54.292;18.598;2023-03-15T06:15:38;4.12;78.82
70271;SHT31;57680;54.292;18.598;2023-03-15T06:18:04;3.82;79.62
70271;SHT31;57680;54.292;18.598;2023-03-15T06:20:29;3.49;80.57
70271;SHT31;57680;54.292;18.598;2023-03-15T06:22:55;3.27;81.82
70271;SHT31;57680;54.292;18.598;2023-03-15T06:25:20;3.43;81.33
70271;SHT31;57680;54.292;18.598;2023-03-15T06:27:46;3.99;79.52
70271;SHT31;57680;54.292;18.598;2023-03-15T06:30:11;4.38;78.27
70271;SHT31;57680;54.292;18.598;2023-03-15T06:32:37;4.50;76.77
70271;SHT31;57680;54.292;18.598;2023-03-15T06:35:02;4.52;76.21
70271;SHT31;57680;54.292;18.598;2023-03-15T06:37:28;4.63;76.40
70271;SHT31;57680;54.292;18.598;2023-03-15T06:39:53;4.64;76.60
70271;SHT31;57680;54.292;18.598;2023-03-15T06:42:19;4.50;77.07
70271;SHT31;57680;54.292;18.598;2023-03-15T06:44:44;4.64;77.39
70271;SHT31;57680;54.292;18.598;2023-03-15T06:47:11;4.13;77.88
70271;SHT31;57680;54.292;18.598;2023-03-15T06:49:36;4.42;77.31
70271;SHT31;57680;54.292;18.598;2023-03-15T06:52:03;4.53;76.73
70271;SHT31;57680;54.292;18.598;2023-03-15T06:54:29;4.73;76.98
70271;SHT31;57680;54.292;18.598;2023-03-15T06:56:55;4.76;76.69
70271;SHT31;57680;54.292;18.598;2023-03-15T06:59:20;4.70;76.06
70271;SHT31;57680;54.292;18.598;2023-03-15T07:01:45;4.84;76.82
70271;SHT31;57680;54.292;18.598;2023-03-15T07:04:11;4.88;76.66
70271;SHT31;57680;54.292;18.598;2023-03-15T07:06:36;4.74;76.13
70271;SHT31;57680;54.292;18.598;2023-03-15T07:09:02;4.79;76.19
70271;SHT31;57680;54.292;18.598;2023-03-15T07:11:28;4.67;76.66
70271;SHT31;57680;54.292;18.598;2023-03-15T07:13:53;4.52;77.22
70271;SHT31;57680;54.292;18.598;2023-03-15T07:16:19;4.54;76.30
70271;SHT31;57680;54.292;18.598;2023-03-15T07:18:44;4.70;76.60
70271;SHT31;57680;54.292;18.598;2023-03-15T07:21:10;4.39;77.36
70271;SHT31;57680;54.292;18.598;2023-03-15T07:23:35;4.11;79.18
70271;SHT31;57680;54.292;18.598;2023-03-15T07:26:01;3.95;78.80
70271;SHT31;57680;54.292;18.598;2023-03-15T07:28:27;4.05;78.99
70271;SHT31;57680;54.292;18.598;2023-03-15T07:31:01;3.90;79.36
70271;SHT31;57680;54.292;18.598;2023-03-15T07:33:28;4.23;78.28
70271;SHT31;57680;54.292;18.598;2023-03-15T07:35:54;4.54;77.03
70271;SHT31;57680;54.292;18.598;2023-03-15T07:38:21;4.56;76.89
70271;SHT31;57680;54.292;18.598;2023-03-15T07:40:47;4.70;77.67
70271;SHT31;57680;54.292;18.598;2023-03-15T07:43:13;4.60;77.56
70271;SHT31;57680;54.292;18.598;2023-03-15T07:45:38;4.62;77.42
70271;SHT31;57680;54.292;18.598;2023-03-15T07:48:04;4.45;77.14
70271;SHT31;57680;54.292;18.598;2023-03-15T07:50:29;4.21;77.84
70271;SHT31;57680;54.292;18.598;2023-03-15T07:52:55;4.03;78.51
70271;SHT31;57680;54.292;18.598;2023-03-15T07:55:20;3.90;79.92
70271;SHT31;57680;54.292;18.598;2023-03-15T07:57:46;3.70;80.99
70271;SHT31;57680;54.292;18.598;2023-03-15T08:00:11;3.59;81.97
70271;SHT31;57680;54.292;18.598;2023-03-15T08:02:37;3.59;81.66
70271;SHT31;57680;54.292;18.598;2023-03-15T08:05:03;3.61;82.66
70271;SHT31;57680;54.292;18.598;2023-03-15T08:07:29;3.73;82.90
70271;SHT31;57680;54.292;18.598;2023-03-15T08:09:54;4.23;80.60
70271;SHT31;57680;54.292;18.598;2023-03-15T08:12:20;4.13;81.10
70271;SHT31;57680;54.292;18.598;2023-03-15T08:14:46;4.03;81.78
70271;SHT31;57680;54.292;18.598;2023-03-15T08:17:11;3.99;81.91
70271;SHT31;57680;54.292;18.598;2023-03-15T08:19:37;3.81;82.85
70271;SHT31;57680;54.292;18.598;2023-03-15T08:22:02;3.94;82.65
70271;SHT31;57680;54.292;18.598;2023-03-15T08:24:27;4.35;82.64
70271;SHT31;57680;54.292;18.598;2023-03-15T08:26:53;4.67;80.47
70271;SHT31;57680;54.292;18.598;2023-03-15T08:29:18;4.76;78.81
70271;SHT31;57680;54.292;18.598;2023-03-15T08:31:43;5.00;77.69
70271;SHT31;57680;54.292;18.598;2023-03-15T08:34:09;5.24;78.25
70271;SHT31;57680;54.292;18.598;2023-03-15T08:36:34;5.12;77.94
70271;SHT31;57680;54.292;18.598;2023-03-15T08:39:00;4.97;77.89
70271;SHT31;57680;54.292;18.598;2023-03-15T08:41:25;4.69;77.26
70271;SHT31;57680;54.292;18.598;2023-03-15T08:43:51;4.42;79.33
70271;SHT31;57680;54.292;18.598;2023-03-15T08:46:16;4.36;79.94
70271;SHT31;57680;54.292;18.598;2023-03-15T08:48:42;4.98;79.63
70271;SHT31;57680;54.292;18.598;2023-03-15T08:51:07;5.08;77.82
70271;SHT31;57680;54.292;18.598;2023-03-15T08:53:33;4.91;76.67
70271;SHT31;57680;54.292;18.598;2023-03-15T08:55:58;4.60;76.82
70271;SHT31;57680;54.292;18.598;2023-03-15T08:58:24;4.45;75.48
70271;SHT31;57680;54.292;18.598;2023-03-15T09:00:50;4.53;76.65
70271;SHT31;57680;54.292;18.598;2023-03-15T09:03:17;4.43;74.39
70271;SHT31;57680;54.292;18.598;2023-03-15T09:05:43;4.53;72.83
70271;SHT31;57680;54.292;18.598;2023-03-15T09:08:08;4.91;72.48
70271;SHT31;57680;54.292;18.598;2023-03-15T09:10:34;4.64;72.69
70271;SHT31;57680;54.292;18.598;2023-03-15T09:12:59;5.15;71.72
70271;SHT31;57680;54.292;18.598;2023-03-15T09:15:25;5.59;72.46
70271;SHT31;57680;54.292;18.598;2023-03-15T09:17:51;5.51;70.95
70271;SHT31;57680;54.292;18.598;2023-03-15T09:20:16;5.77;68.16
70271;SHT31;57680;54.292;18.598;2023-03-15T09:22:42;5.74;69.44
70271;SHT31;57680;54.292;18.598;2023-03-15T09:25:08;5.87;69.17
70271;SHT31;57680;54.292;18.598;2023-03-15T09:27:34;6.34;69.29
70271;SHT31;57680;54.292;18.598;2023-03-15T09:30:00;6.41;69.40
70271;SHT31;57680;54.292;18.598;2023-03-15T09:32:25;6.79;66.24
70271;SHT31;57680;54.292;18.598;2023-03-15T09:34:51;7.12;65.21
70271;SHT31;57680;54.292;18.598;2023-03-15T09:37:17;7.34;64.78
70271;SHT31;57680;54.292;18.598;2023-03-15T09:39:42;6.97;61.89
70271;SHT31;57680;54.292;18.598;2023-03-15T09:45:13;5.76;64.17
70271;SHT31;57680;54.292;18.598;2023-03-15T09:47:54;5.59;64.73
70271;SHT31;57680;54.292;18.598;2023-03-15T09:50:31;5.35;65.71
70271;SHT31;57680;54.292;18.598;2023-03-15T09:53:15;5.30;66.41
70271;SHT31;57680;54.292;18.598;2023-03-15T09:55:43;5.59;67.77
70271;SHT31;57680;54.292;18.598;2023-03-15T09:58:18;5.55;66.45
70271;SHT31;57680;54.292;18.598;2023-03-15T10:00:51;5.53;65.08
70271;SHT31;57680;54.292;18.598;2023-03-15T10:03:28;5.41;65.98
70271;SHT31;57680;54.292;18.598;2023-03-15T10:05:57;5.45;66.65
70271;SHT31;57680;54.292;18.598;2023-03-15T10:08:25;5.60;67.33
70271;SHT31;57680;54.292;18.598;2023-03-15T10:10:55;5.69;66.24
70271;SHT31;57680;54.292;18.598;2023-03-15T10:19:21;5.60;64.96
70271;SHT31;57680;54.292;18.598;2023-03-15T10:24:22;5.58;64.56
70271;SHT31;57680;54.292;18.598;2023-03-15T10:26:52;5.72;64.32
70271;SHT31;57680;54.292;18.598;2023-03-15T10:29:20;5.83;64.51
70271;SHT31;57680;54.292;18.598;2023-03-15T10:31:47;6.21;63.99
70271;SHT31;57680;54.292;18.598;2023-03-15T10:34:14;6.55;63.63
70271;SHT31;57680;54.292;18.598;2023-03-15T10:36:48;7.02;63.60
70271;SHT31;57680;54.292;18.598;2023-03-15T10:39:14;7.24;60.84
70271;SHT31;57680;54.292;18.598;2023-03-15T10:41:45;7.48;60.39
70271;SHT31;57680;54.292;18.598;2023-03-15T10:47:05;7.96;59.19
70271;SHT31;57680;54.292;18.598;2023-03-15T10:49:33;8.07;58.44
70271;SHT31;57680;54.292;18.598;2023-03-15T10:51:58;8.06;59.28
70271;SHT31;57680;54.292;18.598;2023-03-15T10:54:24;7.47;56.01
70271;SHT31;57680;54.292;18.598;2023-03-15T10:57:01;7.34;54.59
70271;SHT31;57680;54.292;18.598;2023-03-15T10:59:31;7.74;57.68
70271;SHT31;57680;54.292;18.598;2023-03-15T11:04:43;6.82;58.67
70271;SHT31;57680;54.292;18.598;2023-03-15T11:07:11;6.59;59.39
70271;SHT31;57680;54.292;18.598;2023-03-15T11:12:09;6.37;56.82
70271;SHT31;57680;54.292;18.598;2023-03-15T11:14:42;6.17;55.65
70271;SHT31;57680;54.292;18.598;2023-03-15T11:17:24;6.03;57.13
70271;SHT31;57680;54.292;18.598;2023-03-15T11:19:59;6.14;57.11
70271;SHT31;57680;54.292;18.598;2023-03-15T11:22:25;6.51;57.35
70271;SHT31;57680;54.292;18.598;2023-03-15T11:24:53;6.93;56.44
70271;SHT31;57680;54.292;18.598;2023-03-15T11:27:20;7.43;55.82
70271;SHT31;57680;54.292;18.598;2023-03-15T11:29:49;7.78;54.42
70271;SHT31;57680;54.292;18.598;2023-03-15T11:32:18;7.85;51.77
70271;SHT31;57680;54.292;18.598;2023-03-15T11:37:46;7.75;52.26
70271;SHT31;57680;54.292;18.598;2023-03-15T11:40:28;7.30;54.35
70271;SHT31;57680;54.292;18.598;2023-03-15T11:46:04;7.57;54.93
70271;SHT31;57680;54.292;18.598;2023-03-15T11:48:36;7.84;53.18
70271;SHT31;57680;54.292;18.598;2023-03-15T11:51:03;7.86;50.39
70271;SHT31;57680;54.292;18.598;2023-03-15T11:53:36;8.06;51.58
70271;SHT31;57680;54.292;18.598;2023-03-15T11:56:23;8.05;50.24
70271;SHT31;57680;54.292;18.598;2023-03-15T12:01:25;7.89;49.35
70271;SHT31;57680;54.292;18.598;2023-03-15T12:03:50;7.78;49.52
70271;SHT31;57680;54.292;18.598;2023-03-15T12:06:36;7.95;49.48
70271;SHT31;57680;54.292;18.598;2023-03-15T12:11:59;7.82;51.29
70271;SHT31;57680;54.292;18.598;2023-03-15T12:14:35;7.61;51.55
70271;SHT31;57680;54.292;18.598;2023-03-15T12:20:00;7.12;50.16
70271;SHT31;57680;54.292;18.598;2023-03-15T12:22:32;7.24;52.34
70271;SHT31;57680;54.292;18.598;2023-03-15T12:25:12;7.53;52.67
70271;SHT31;57680;54.292;18.598;2023-03-15T12:27:46;7.75;51.14
70271;SHT31;57680;54.292;18.598;2023-03-15T12:30:22;7.60;50.90
70271;SHT31;57680;54.292;18.598;2023-03-15T12:32:52;7.53;51.25
70271;SHT31;57680;54.292;18.598;2023-03-15T12:35:19;7.82;48.93
70271;SHT31;57680;54.292;18.598;2023-03-15T12:37:47;7.94;48.96
70271;SHT31;57680;54.292;18.598;2023-03-15T12:50:38;6.46;49.61
70271;SHT31;57680;54.292;18.598;2023-03-15T12:55:51;6.14;50.29
70271;SHT31;57680;54.292;18.598;2023-03-15T12:58:20;6.11;51.67
70271;SHT31;57680;54.292;18.598;2023-03-15T13:00:52;6.06;51.00
70271;SHT31;57680;54.292;18.598;2023-03-15T13:03:20;6.06;51.54
70271;SHT31;57680;54.292;18.598;2023-03-15T13:06:06;6.07;52.76
70271;SHT31;57680;54.292;18.598;2023-03-15T13:08:42;6.04;49.76
70271;SHT31;57680;54.292;18.598;2023-03-15T13:16:28;5.70;52.46
70271;SHT31;57680;54.292;18.598;2023-03-15T13:19:21;5.58;53.78
70271;SHT31;57680;54.292;18.598;2023-03-15T13:22:16;5.72;54.91
70271;SHT31;57680;54.292;18.598;2023-03-15T13:25:12;6.11;51.93
70271;SHT31;57680;54.292;18.598;2023-03-15T13:27:57;6.37;49.43
70271;SHT31;57680;54.292;18.598;2023-03-15T13:30:31;6.37;49.51
70271;SHT31;57680;54.292;18.598;2023-03-15T13:36:00;6.88;51.24
70271;SHT31;57680;54.292;18.598;2023-03-15T13:38:39;7.06;50.33
70271;SHT31;57680;54.292;18.598;2023-03-15T13:41:29;6.65;50.50
70271;SHT31;57680;54.292;18.598;2023-03-15T13:43:57;6.82;48.50
70271;SHT31;57680;54.292;18.598;2023-03-15T13:46:25;6.86;46.86
70271;SHT31;57680;54.292;18.598;2023-03-15T13:48:53;6.78;46.65
70271;SHT31;57680;54.292;18.598;2023-03-15T13:51:34;6.81;45.74
70271;SHT31;57680;54.292;18.598;2023-03-15T13:54:05;6.85;47.10
70271;SHT31;57680;54.292;18.598;2023-03-15T13:56:34;6.85;47.44
70271;SHT31;57680;54.292;18.598;2023-03-15T13:59:00;6.99;48.85
70271;SHT31;57680;54.292;18.598;2023-03-15T14:01:27;6.97;45.64
70271;SHT31;57680;54.292;18.598;2023-03-15T14:04:20;6.79;44.40
70271;SHT31;57680;54.292;18.598;2023-03-15T14:06:46;6.76;43.49
70271;SHT31;57680;54.292;18.598;2023-03-15T14:09:30;6.68;44.14
70271;SHT31;57680;54.292;18.598;2023-03-15T14:12:03;6.64;46.63
70271;SHT31;57680;54.292;18.598;2023-03-15T14:14:31;6.69;47.92
70271;SHT31;57680;54.292;18.598;2023-03-15T14:16:57;6.78;47.94
70271;SHT31;57680;54.292;18.598;2023-03-15T14:19:28;6.72;46.60
70271;SHT31;57680;54.292;18.598;2023-03-15T14:21:56;6.81;46.73
70271;SHT31;57680;54.292;18.598;2023-03-15T14:26:56;6.54;44.98
70271;SHT31;57680;54.292;18.598;2023-03-15T14:29:30;6.45;44.92
70271;SHT31;57680;54.292;18.598;2023-03-15T14:32:01;6.37;45.77
70271;SHT31;57680;54.292;18.598;2023-03-15T14:36:58;6.24;49.05
70271;SHT31;57680;54.292;18.598;2023-03-15T14:39:28;6.27;49.04
70271;SHT31;57680;54.292;18.598;2023-03-15T14:41:54;6.35;49.02
70271;SHT31;57680;54.292;18.598;2023-03-15T14:44:19;6.33;47.20
70271;SHT31;57680;54.292;18.598;2023-03-15T14:46:44;6.25;47.96
70271;SHT31;57680;54.292;18.598;2023-03-15T14:49:21;6.30;48.83
70271;SHT31;57680;54.292;18.598;2023-03-15T14:52:10;6.25;49.30
70271;SHT31;57680;54.292;18.598;2023-03-15T14:54:36;6.14;50.11
70271;SHT31;57680;54.292;18.598;2023-03-15T14:57:02;6.07;48.53
70271;SHT31;57680;54.292;18.598;2023-03-15T14:59:27;6.02;50.82
70271;SHT31;57680;54.292;18.598;2023-03-15T15:01:56;6.04;51.72
70271;SHT31;57680;54.292;18.598;2023-03-15T15:04:22;6.07;52.20
70271;SHT31;57680;54.292;18.598;2023-03-15T15:06:48;5.87;51.96
70271;SHT31;57680;54.292;18.598;2023-03-15T15:09:14;5.85;50.71
70271;SHT31;57680;54.292;18.598;2023-03-15T15:11:40;5.66;51.13
70271;SHT31;57680;54.292;18.598;2023-03-15T15:14:12;5.49;51.90
70271;SHT31;57680;54.292;18.598;2023-03-15T15:16:37;5.51;51.73
70271;SHT31;57680;54.292;18.598;2023-03-15T15:19:02;5.36;52.16
70271;SHT31;57680;54.292;18.598;2023-03-15T15:21:29;5.39;52.68
70271;SHT31;57680;54.292;18.598;2023-03-15T15:23:55;5.39;52.23
70271;SHT31;57680;54.292;18.598;2023-03-15T15:26:22;5.42;52.70
70271;SHT31;57680;54.292;18.598;2023-03-15T15:28:48;5.42;53.82
70271;SHT31;57680;54.292;18.598;2023-03-15T15:31:19;5.38;53.35
70271;SHT31;57680;54.292;18.598;2023-03-15T15:33:45;5.31;52.62
70271;SHT31;57680;54.292;18.598;2023-03-15T15:36:16;5.35;51.98
70271;SHT31;57680;54.292;18.598;2023-03-15T15:38:45;5.30;51.51
70271;SHT31;57680;54.292;18.598;2023-03-15T15:41:15;5.12;52.14
70271;SHT31;57680;54.292;18.598;2023-03-15T15:43:43;5.10;52.49
70271;SHT31;57680;54.292;18.598;2023-03-15T15:46:09;4.97;52.74
70271;SHT31;57680;54.292;18.598;2023-03-15T15:48:35;5.00;52.21
70271;SHT31;57680;54.292;18.598;2023-03-15T15:51:00;4.91;52.97
70271;SHT31;57680;54.292;18.598;2023-03-15T15:53:29;4.91;53.06
70271;SHT31;57680;54.292;18.598;2023-03-15T15:55:55;4.87;52.84
70271;SHT31;57680;54.292;18.598;2023-03-15T15:58:21;4.87;52.70
70271;SHT31;57680;54.292;18.598;2023-03-15T16:00:46;4.74;53.40
70271;SHT31;57680;54.292;18.598;2023-03-15T16:03:12;4.60;54.27
70271;SHT31;57680;54.292;18.598;2023-03-15T16:05:37;4.60;54.81
70271;SHT31;57680;54.292;18.598;2023-03-15T16:08:03;4.60;55.10
70271;SHT31;57680;54.292;18.598;2023-03-15T16:10:29;4.54;54.99
70271;SHT31;57680;54.292;18.598;2023-03-15T16:12:55;4.43;54.98
70271;SHT31;57680;54.292;18.598;2023-03-15T16:15:21;4.41;54.89
70271;SHT31;57680;54.292;18.598;2023-03-15T16:17:46;4.29;55.53
70271;SHT31;57680;54.292;18.598;2023-03-15T16:20:13;4.22;55.49
70271;SHT31;57680;54.292;18.598;2023-03-15T16:22:44;4.05;56.93
70271;SHT31;57680;54.292;18.598;2023-03-15T16:25:15;3.94;56.68
70271;SHT31;57680;54.292;18.598;2023-03-15T16:27:41;3.87;57.52
70271;SHT31;57680;54.292;18.598;2023-03-15T16:30:16;3.70;58.89
70271;SHT31;57680;54.292;18.598;2023-03-15T16:32:43;3.56;59.54
70271;SHT31;57680;54.292;18.598;2023-03-15T16:35:10;3.43;60.92
70271;SHT31;57680;54.292;18.598;2023-03-15T16:37:36;3.33;62.44
70271;SHT31;57680;54.292;18.598;2023-03-15T16:40:01;3.29;63.44